createdAt,value
2022-11-28T00:01:34.000Z,6.54
2022-11-28T00:04:00.369Z,6.58
2022-11-28T00:06:27.562Z,6.54
2022-11-28T00:08:54.715Z,6.56
2022-11-28T00:11:21.142Z,6.59
2022-11-28T00:13:47.483Z,6.59
2022-11-28T00:16:18.050Z,6.59
2022-11-28T00:18:44.441Z,6.58
2022-11-28T00:21:13.180Z,6.56
2022-11-28T00:23:40.802Z,6.57
2022-11-28T00:26:10.784Z,6.56
2022-11-28T00:28:37.760Z,6.55
2022-11-28T00:31:04.791Z,6.60
2022-11-28T00:33:34.838Z,6.59
2022-11-28T00:36:03.148Z,6.58
2022-11-28T00:38:30.181Z,6.65
2022-11-28T00:41:08.396Z,6.63
2022-11-28T00:43:35.154Z,6.60
2022-11-28T00:46:02.826Z,6.64
2022-11-28T00:48:29.553Z,6.70
2022-11-28T00:51:08.630Z,6.69
2022-11-28T00:53:35.630Z,6.64
2022-11-28T00:56:05.577Z,6.79
2022-11-28T00:58:33.468Z,6.70
2022-11-28T01:01:00.437Z,6.73
2022-11-28T01:03:26.854Z,6.73
2022-11-28T01:05:53.224Z,6.74
2022-11-28T01:08:19.561Z,6.68
2022-11-28T01:10:46.116Z,6.76
2022-11-28T01:13:12.478Z,6.77
2022-11-28T01:15:42.004Z,6.72
2022-11-28T01:18:08.682Z,6.72
2022-11-28T01:20:35.123Z,6.81
2022-11-28T01:23:01.589Z,6.84
2022-11-28T01:25:27.972Z,6.85
2022-11-28T01:27:54.394Z,6.88
2022-11-28T01:30:20.891Z,6.88
2022-11-28T01:32:47.253Z,6.90
2022-11-28T01:35:13.655Z,6.90
2022-11-28T01:37:40.214Z,6.89
2022-11-28T01:40:07.345Z,6.88
2022-11-28T01:42:34.087Z,6.95
2022-11-28T01:45:17.314Z,6.98
2022-11-28T01:47:44.279Z,6.97
2022-11-28T01:50:11.429Z,6.95
2022-11-28T01:52:40.911Z,6.96
2022-11-28T01:55:09.011Z,6.97
2022-11-28T01:57:35.550Z,6.93
2022-11-28T02:00:12.239Z,7.01
2022-11-28T02:02:47.840Z,7.03
2022-11-28T02:05:15.995Z,7.05
2022-11-28T02:07:44.154Z,7.10
2022-11-28T02:10:15.052Z,7.12
2022-11-28T02:12:59.005Z,7.09
2022-11-28T02:16:01.708Z,7.07
2022-11-28T02:18:36.243Z,7.13
2022-11-28T02:21:25.799Z,7.10
2022-11-28T02:24:02.563Z,7.03
2022-11-28T02:26:55.983Z,7.13
2022-11-28T02:29:47.338Z,7.11
2022-11-28T02:32:30.211Z,7.09
2022-11-28T02:35:05.113Z,7.08
2022-11-28T02:37:44.075Z,7.13
2022-11-28T02:40:25.014Z,7.15
2022-11-28T02:43:16.726Z,7.12
2022-11-28T02:45:55.185Z,7.16
2022-11-28T02:48:30.616Z,7.13
2022-11-28T02:51:06.410Z,7.13
2022-11-28T02:53:34.003Z,7.02
2022-11-28T02:56:00.811Z,7.11
2022-11-28T02:58:27.355Z,7.16
2022-11-28T03:00:54.907Z,7.13
2022-11-28T03:03:36.539Z,7.22
2022-11-28T03:06:37.534Z,7.18
2022-11-28T03:09:17.167Z,7.23
2022-11-28T03:12:09.585Z,7.16
2022-11-28T03:14:54.100Z,7.21
2022-11-28T03:17:37.749Z,7.16
2022-11-28T03:20:11.759Z,7.19
2022-11-28T03:22:44.849Z,7.23
2022-11-28T03:25:35.922Z,7.24
2022-11-28T03:28:12.177Z,7.31
2022-11-28T03:30:53.659Z,7.19
2022-11-28T03:33:23.413Z,7.19
2022-11-28T03:35:56.217Z,7.13
2022-11-28T03:38:29.058Z,7.13
2022-11-28T03:40:59.863Z,7.11
2022-11-28T03:43:34.696Z,7.11
2022-11-28T03:46:07.202Z,7.16
2022-11-28T03:48:42.046Z,7.10
2022-11-28T03:51:19.913Z,7.07
2022-11-28T03:54:01.387Z,7.05
2022-11-28T03:56:40.951Z,7.09
2022-11-28T03:59:16.676Z,7.09
2022-11-28T04:02:13.847Z,7.08
2022-11-28T04:04:55.510Z,7.09
2022-11-28T04:07:41.122Z,7.06
2022-11-28T04:10:33.271Z,7.04
2022-11-28T04:13:15.383Z,7.04
2022-11-28T04:15:53.752Z,6.99
2022-11-28T04:18:57.681Z,6.95
2022-11-28T04:21:36.735Z,7.03
2022-11-28T04:24:10.438Z,6.96
2022-11-28T04:26:43.584Z,6.92
2022-11-28T04:29:13.981Z,6.93
2022-11-28T04:31:44.336Z,6.94
2022-11-28T04:34:14.210Z,6.87
2022-11-28T04:36:43.288Z,6.89
2022-11-28T04:39:14.750Z,6.88
2022-11-28T04:41:53.441Z,6.87
2022-11-28T04:44:26.830Z,6.81
2022-11-28T04:46:55.494Z,6.86
2022-11-28T04:49:23.607Z,6.80
2022-11-28T04:52:07.280Z,6.90
2022-11-28T04:54:45.171Z,6.84
2022-11-28T04:57:19.106Z,6.81
2022-11-28T04:59:47.204Z,6.88
2022-11-28T05:02:16.440Z,6.88
2022-11-28T05:04:44.686Z,6.84
2022-11-28T05:07:11.217Z,6.80
2022-11-28T05:09:38.355Z,6.86
2022-11-28T05:12:06.083Z,6.81
2022-11-28T05:14:32.460Z,6.80
2022-11-28T05:16:58.797Z,6.79
2022-11-28T05:19:25.285Z,6.82
2022-11-28T05:21:53.361Z,6.80
2022-11-28T05:24:22.277Z,6.71
2022-11-28T05:26:49.010Z,6.66
2022-11-28T05:29:15.435Z,6.72
2022-11-28T05:31:41.835Z,6.69
2022-11-28T05:34:08.415Z,6.72
2022-11-28T05:36:35.026Z,6.73
2022-11-28T05:39:01.366Z,6.76
2022-11-28T05:41:30.380Z,6.72
2022-11-28T05:43:58.008Z,6.80
2022-11-28T05:46:25.192Z,6.79
2022-11-28T05:48:51.575Z,6.78
2022-11-28T05:51:18.174Z,6.79
2022-11-28T05:53:44.914Z,6.79
2022-11-28T05:56:23.048Z,6.86
2022-11-28T05:58:49.755Z,6.86
2022-11-28T06:01:24.493Z,6.87
2022-11-28T06:03:51.846Z,6.90
2022-11-28T06:06:22.036Z,6.90
2022-11-28T06:08:49.701Z,6.90
2022-11-28T06:11:16.441Z,6.89
2022-11-28T06:13:43.780Z,6.85
2022-11-28T06:16:12.244Z,6.87
2022-11-28T06:18:39.788Z,6.85
2022-11-28T06:21:08.040Z,6.89
2022-11-28T06:23:35.085Z,6.87
2022-11-28T06:26:06.889Z,6.85
2022-11-28T06:28:34.368Z,6.94
2022-11-28T06:31:01.111Z,6.91
2022-11-28T06:33:27.697Z,6.86
2022-11-28T06:36:01.562Z,6.91
2022-11-28T06:38:28.798Z,6.92
2022-11-28T06:41:00.005Z,6.90
2022-11-28T06:43:27.157Z,6.92
2022-11-28T06:45:54.096Z,6.95
2022-11-28T06:48:21.174Z,6.89
2022-11-28T06:50:48.026Z,6.94
2022-11-28T06:53:14.565Z,7.00
2022-11-28T06:55:42.309Z,6.99
2022-11-28T06:58:08.776Z,7.00
2022-11-28T07:00:35.546Z,6.94
2022-11-28T07:03:01.938Z,6.98
2022-11-28T07:05:28.460Z,6.99
2022-11-28T07:07:54.972Z,6.98
2022-11-28T07:10:22.293Z,6.91
2022-11-28T07:12:54.477Z,6.91
2022-11-28T07:15:21.128Z,6.92
2022-11-28T07:17:47.462Z,6.97
2022-11-28T07:20:14.178Z,6.95
2022-11-28T07:22:40.644Z,6.95
2022-11-28T07:25:07.593Z,7.03
2022-11-28T07:27:34.089Z,6.99
2022-11-28T07:30:00.438Z,6.98
2022-11-28T07:32:26.768Z,6.97
2022-11-28T07:34:53.801Z,7.00
2022-11-28T07:37:20.185Z,7.04
2022-11-28T07:39:46.524Z,7.06
2022-11-28T07:42:13.062Z,7.05
2022-11-28T07:44:39.426Z,7.01
2022-11-28T07:47:05.852Z,7.08
2022-11-28T07:49:32.268Z,7.02
2022-11-28T07:51:58.818Z,7.06
2022-11-28T07:54:25.212Z,7.06
2022-11-28T07:59:37.886Z,7.18
2022-11-28T08:02:04.402Z,7.13
2022-11-28T08:04:30.877Z,7.18
2022-11-28T08:06:57.281Z,7.18
2022-11-28T08:09:23.624Z,7.15
2022-11-28T08:11:52.316Z,7.26
2022-11-28T08:14:18.710Z,7.23
2022-11-28T08:16:45.355Z,7.17
2022-11-28T08:19:11.968Z,7.18
2022-11-28T08:21:38.849Z,7.26
2022-11-28T08:24:07.723Z,7.22
2022-11-28T08:26:34.753Z,7.23
2022-11-28T08:29:02.176Z,7.24
2022-11-28T08:31:31.882Z,7.26
2022-11-28T08:34:01.116Z,7.28
2022-11-28T08:36:29.374Z,7.32
2022-11-28T08:39:17.072Z,7.29
2022-11-28T08:41:42.734Z,7.23
2022-11-28T08:44:09.205Z,7.31
2022-11-28T08:46:36.206Z,7.29
2022-11-28T08:49:04.564Z,7.31
2022-11-28T08:51:31.643Z,7.32
2022-11-28T08:53:59.794Z,7.33
2022-11-28T08:56:26.945Z,7.36
2022-11-28T08:58:53.344Z,7.35
2022-11-28T09:01:22.482Z,7.32
2022-11-28T09:03:49.493Z,7.33
2022-11-28T09:06:17.307Z,7.36
2022-11-28T09:08:44.290Z,7.42
2022-11-28T09:11:13.201Z,7.37
2022-11-28T09:13:39.655Z,7.40
2022-11-28T09:16:06.610Z,7.36
2022-11-28T09:18:33.347Z,7.37
2022-11-28T09:21:01.834Z,7.43
2022-11-28T09:23:29.127Z,7.47
2022-11-28T09:25:56.242Z,7.53
2022-11-28T09:28:23.577Z,7.53
2022-11-28T09:30:50.342Z,7.54
2022-11-28T09:33:16.810Z,7.55
2022-11-28T09:35:43.213Z,7.63
2022-11-28T09:38:09.571Z,7.63
2022-11-28T09:40:42.169Z,7.64
2022-11-28T09:43:31.228Z,7.59
2022-11-28T09:46:00.354Z,7.68
2022-11-28T09:48:33.705Z,7.65
2022-11-28T09:51:06.872Z,7.60
2022-11-28T09:53:52.694Z,7.60
2022-11-28T09:56:22.105Z,7.59
2022-11-28T09:59:00.618Z,7.64
2022-11-28T10:01:45.531Z,7.63
2022-11-28T10:04:24.220Z,7.64
2022-11-28T10:07:09.270Z,7.61
2022-11-28T10:09:59.897Z,7.58
2022-11-28T10:12:31.580Z,7.49
2022-11-28T10:15:03.732Z,7.54
2022-11-28T10:17:56.609Z,7.60
2022-11-28T10:20:27.191Z,7.57
2022-11-28T10:22:59.286Z,7.60
2022-11-28T10:25:28.425Z,7.61
2022-11-28T10:27:55.596Z,7.61
2022-11-28T10:30:25.811Z,7.54
2022-11-28T10:32:57.638Z,7.56
2022-11-28T10:35:44.659Z,7.54
2022-11-28T10:38:16.002Z,7.61
2022-11-28T10:40:55.641Z,7.71
2022-11-28T10:43:59.483Z,7.65
2022-11-28T10:46:41.175Z,7.63
2022-11-28T10:49:19.703Z,7.56
2022-11-28T10:52:23.593Z,7.61
2022-11-28T10:55:07.516Z,7.63
2022-11-28T10:57:45.208Z,7.54
2022-11-28T11:00:14.893Z,7.59
2022-11-28T11:02:46.371Z,7.69
2022-11-28T11:05:18.413Z,7.67
2022-11-28T11:08:12.647Z,7.70
2022-11-28T11:10:49.135Z,7.68
2022-11-28T11:13:53.464Z,7.73
2022-11-28T11:16:19.880Z,7.71
2022-11-28T11:18:46.605Z,7.74
2022-11-28T11:21:19.210Z,7.78
2022-11-28T11:23:46.795Z,7.76
2022-11-28T11:26:29.060Z,7.75
2022-11-28T11:28:56.330Z,7.73
2022-11-28T11:31:31.879Z,7.78
2022-11-28T11:34:07.642Z,7.79
2022-11-28T11:36:36.403Z,7.79
2022-11-28T11:39:12.330Z,7.81
2022-11-28T11:41:41.742Z,7.84
2022-11-28T11:44:13.815Z,7.80
2022-11-28T11:46:57.140Z,7.85
2022-11-28T11:49:35.657Z,7.86
2022-11-28T11:52:05.917Z,7.82
2022-11-28T11:54:32.846Z,7.86
2022-11-28T11:57:30.834Z,7.88
2022-11-28T11:59:52.529Z,7.93
2022-11-28T12:02:31.027Z,7.93
2022-11-28T12:05:28.062Z,7.89
2022-11-28T12:08:00.003Z,7.95
2022-11-28T12:10:30.885Z,7.97
2022-11-28T12:12:57.468Z,7.92
2022-11-28T12:15:50.873Z,7.87
2022-11-28T12:18:30.745Z,7.88
2022-11-28T12:21:13.931Z,7.89
2022-11-28T12:23:54.150Z,7.84
2022-11-28T12:26:30.632Z,7.94
2022-11-28T12:29:06.234Z,7.85
2022-11-28T12:31:49.714Z,7.88
2022-11-28T12:34:31.354Z,7.80
2022-11-28T12:37:10.222Z,7.80
2022-11-28T12:39:39.526Z,7.84
2022-11-28T12:42:11.773Z,7.78
2022-11-28T12:44:44.368Z,7.79
2022-11-28T12:47:22.901Z,7.80
2022-11-28T12:50:11.536Z,7.80
2022-11-28T12:53:03.937Z,7.77
2022-11-28T12:55:39.645Z,7.74
2022-11-28T12:58:19.791Z,7.70
2022-11-28T13:01:16.727Z,7.70
2022-11-28T13:04:13.317Z,7.69
2022-11-28T13:06:53.070Z,7.75
2022-11-28T13:09:29.692Z,7.76
2022-11-28T13:12:16.406Z,7.75
2022-11-28T13:14:52.645Z,7.57
2022-11-28T13:17:41.767Z,7.58
2022-11-28T13:20:32.840Z,7.59
2022-11-28T13:23:21.982Z,7.61
2022-11-28T13:26:13.182Z,7.60
2022-11-28T13:28:51.790Z,7.55
2022-11-28T13:31:48.946Z,7.57
2022-11-28T13:34:17.466Z,7.59
2022-11-28T13:40:18.611Z,7.52
2022-11-28T13:43:04.373Z,7.61
2022-11-28T13:45:36.496Z,7.62
2022-11-28T13:48:57.641Z,7.57
2022-11-28T13:51:28.712Z,7.60
2022-11-28T13:54:22.152Z,7.56
2022-11-28T13:57:13.408Z,7.57
2022-11-28T13:59:39.936Z,7.61
2022-11-28T14:02:21.895Z,7.66
2022-11-28T14:04:49.004Z,7.64
2022-11-28T14:07:30.586Z,7.69
2022-11-28T14:10:17.967Z,7.67
2022-11-28T14:13:11.744Z,7.67
2022-11-28T14:15:56.630Z,7.70
2022-11-28T14:18:57.252Z,7.73
2022-11-28T14:21:42.322Z,7.75
2022-11-28T14:24:46.892Z,7.75
2022-11-28T14:27:24.885Z,7.78
2022-11-28T14:29:54.623Z,7.83
2022-11-28T14:32:43.176Z,7.79
2022-11-28T14:35:37.496Z,7.79
2022-11-28T14:38:29.777Z,7.80
2022-11-28T14:41:11.489Z,7.83
2022-11-28T14:43:40.925Z,7.82
2022-11-28T14:46:23.643Z,7.80
2022-11-28T14:48:59.497Z,7.80
2022-11-28T14:51:49.021Z,7.82
2022-11-28T14:54:38.203Z,7.75
2022-11-28T14:57:16.787Z,7.76
2022-11-28T14:59:43.891Z,7.76
2022-11-28T15:02:10.676Z,7.72
2022-11-28T15:04:55.354Z,7.75
2022-11-28T15:07:31.875Z,7.78
2022-11-28T15:10:33.520Z,7.79
2022-11-28T15:13:13.692Z,7.80
2022-11-28T15:15:48.689Z,7.75
2022-11-28T15:18:18.319Z,7.73
2022-11-28T15:20:55.126Z,7.72
2022-11-28T15:23:23.984Z,7.71
2022-11-28T15:25:55.390Z,7.69
2022-11-28T15:28:23.739Z,7.73
2022-11-28T15:30:52.817Z,7.72
2022-11-28T15:33:20.454Z,7.70
2022-11-28T15:36:10.733Z,7.67
2022-11-28T15:38:38.361Z,7.71
2022-11-28T15:41:05.045Z,7.73
2022-11-28T15:43:32.314Z,7.76
2022-11-28T15:46:01.281Z,7.78
2022-11-28T15:48:46.843Z,7.79
2022-11-28T15:51:26.467Z,7.80
2022-11-28T15:53:53.133Z,7.82
2022-11-28T15:56:19.760Z,7.82
2022-11-28T15:58:47.664Z,7.84
2022-11-28T16:01:19.904Z,7.82
2022-11-28T16:03:57.385Z,7.83
2022-11-28T16:06:26.689Z,7.85
2022-11-28T16:09:03.915Z,7.82
2022-11-28T16:11:32.362Z,7.80
2022-11-28T16:14:06.412Z,7.82
2022-11-28T16:16:37.725Z,7.81
2022-11-28T16:19:08.171Z,7.85
2022-11-28T16:21:43.716Z,7.84
2022-11-28T16:24:23.556Z,7.81
2022-11-28T16:27:01.457Z,7.80
2022-11-28T16:29:42.666Z,7.80
2022-11-28T16:32:31.963Z,7.81
2022-11-28T16:35:00.752Z,7.80
2022-11-28T16:37:29.371Z,7.81
2022-11-28T16:40:05.753Z,7.81
2022-11-28T16:42:33.677Z,7.83
2022-11-28T16:45:15.546Z,7.82
2022-11-28T16:47:43.237Z,7.83
2022-11-28T16:50:15.388Z,7.81
2022-11-28T16:52:47.914Z,7.81
2022-11-28T16:55:34.727Z,7.81
2022-11-28T16:58:11.365Z,7.83
2022-11-28T17:00:42.196Z,7.84
2022-11-28T17:03:42.930Z,7.82
2022-11-28T17:06:16.538Z,7.83
2022-11-28T17:08:43.023Z,7.86
2022-11-28T17:11:10.050Z,7.83
2022-11-28T17:13:36.400Z,7.84
2022-11-28T17:16:03.140Z,7.84
2022-11-28T17:18:31.926Z,7.82
2022-11-28T17:21:00.829Z,7.84
2022-11-28T17:23:27.242Z,7.88
2022-11-28T17:25:53.549Z,7.88
2022-11-28T17:28:23.210Z,7.88
2022-11-28T17:30:51.628Z,7.90
2022-11-28T17:33:18.000Z,7.91
2022-11-28T17:35:46.886Z,7.91
2022-11-28T17:38:13.224Z,7.88
2022-11-28T17:40:42.058Z,7.92
2022-11-28T17:43:20.011Z,7.91
2022-11-28T17:45:47.286Z,7.87
2022-11-28T17:48:15.857Z,7.97
2022-11-28T17:50:44.416Z,7.89
2022-11-28T17:53:13.957Z,7.91
2022-11-28T17:55:45.707Z,7.80
2022-11-28T17:58:21.203Z,7.91
2022-11-28T18:00:48.207Z,7.94
2022-11-28T18:03:15.633Z,7.97
2022-11-28T18:05:45.619Z,7.94
2022-11-28T18:08:19.156Z,7.95
2022-11-28T18:10:48.211Z,7.93
2022-11-28T18:13:16.577Z,7.96
2022-11-28T18:15:44.841Z,7.96
2022-11-28T18:18:12.003Z,7.98
2022-11-28T18:20:38.375Z,7.97
2022-11-28T18:23:04.774Z,8.00
2022-11-28T18:25:31.097Z,7.98
2022-11-28T18:27:57.466Z,8.03
2022-11-28T18:30:23.846Z,8.05
2022-11-28T18:32:50.283Z,8.03
2022-11-28T18:35:16.914Z,8.04
2022-11-28T18:37:43.472Z,8.01
2022-11-28T18:40:10.098Z,8.05
2022-11-28T18:42:37.121Z,8.00
2022-11-28T18:45:03.761Z,8.05
2022-11-28T18:47:30.272Z,8.08
2022-11-28T18:49:57.709Z,8.05
2022-11-28T18:52:24.202Z,8.10
2022-11-28T18:54:50.685Z,8.10
2022-11-28T18:57:17.080Z,8.16
2022-11-28T18:59:49.003Z,8.15
2022-11-28T19:02:19.354Z,8.15
2022-11-28T19:04:45.689Z,8.21
2022-11-28T19:07:12.122Z,8.23
2022-11-28T19:09:39.919Z,8.26
2022-11-28T19:12:06.817Z,8.21
2022-11-28T19:14:33.264Z,8.19
2022-11-28T19:16:59.637Z,8.20
2022-11-28T19:19:26.015Z,8.17
2022-11-28T19:21:52.577Z,8.18
2022-11-28T19:24:18.988Z,8.18
2022-11-28T19:26:45.704Z,8.21
2022-11-28T19:29:12.945Z,8.19
2022-11-28T19:31:41.380Z,8.21
2022-11-28T19:34:13.653Z,8.25
2022-11-28T19:36:43.379Z,8.17
2022-11-28T19:39:16.864Z,8.21
2022-11-28T19:41:43.576Z,8.14
2022-11-28T19:44:11.121Z,8.13
2022-11-28T19:46:38.866Z,8.15
2022-11-28T19:49:06.069Z,8.17
2022-11-28T19:51:34.148Z,8.18
2022-11-28T19:54:03.495Z,8.13
2022-11-28T19:56:31.318Z,8.09
2022-11-28T19:58:59.060Z,8.14
2022-11-28T20:01:25.818Z,8.15
2022-11-28T20:03:53.289Z,8.13
2022-11-28T20:06:26.620Z,8.12
2022-11-28T20:08:55.355Z,8.12
2022-11-28T20:11:24.681Z,8.08
2022-11-28T20:14:12.632Z,8.14
2022-11-28T20:16:40.319Z,8.16
2022-11-28T20:19:07.517Z,8.10
2022-11-28T20:21:34.378Z,8.13
2022-11-28T20:24:04.523Z,8.16
2022-11-28T20:26:42.331Z,8.17
2022-11-28T20:29:11.700Z,8.19
2022-11-28T20:31:45.222Z,8.18
2022-11-28T20:34:14.132Z,8.14
2022-11-28T20:36:43.546Z,8.16
2022-11-28T20:39:10.907Z,8.17
2022-11-28T20:41:37.277Z,8.19
2022-11-28T20:44:03.751Z,8.17
2022-11-28T20:46:33.438Z,8.14
2022-11-28T20:49:03.083Z,8.18
2022-11-28T20:51:31.376Z,8.19
2022-11-28T20:53:59.162Z,8.19
2022-11-28T20:56:29.499Z,8.19
2022-11-28T20:58:58.472Z,8.21
2022-11-28T21:01:27.275Z,8.22
2022-11-28T21:03:53.746Z,8.25
2022-11-28T21:06:20.486Z,8.22
2022-11-28T21:08:47.358Z,8.18
2022-11-28T21:11:36.898Z,8.24
2022-11-28T21:14:06.607Z,8.30
2022-11-28T21:16:33.604Z,8.26
2022-11-28T21:19:07.296Z,8.26
2022-11-28T21:21:35.097Z,8.30
2022-11-28T21:24:10.672Z,8.30
2022-11-28T21:26:42.364Z,8.25
2022-11-28T21:29:12.054Z,8.31
2022-11-28T21:31:42.578Z,8.27
2022-11-28T21:34:14.315Z,8.32
2022-11-28T21:36:40.986Z,8.35
2022-11-28T21:39:07.368Z,8.26
2022-11-28T21:41:33.708Z,8.36
2022-11-28T21:44:00.977Z,8.29
2022-11-28T21:46:28.423Z,8.36
2022-11-28T21:48:54.868Z,8.39
2022-11-28T21:51:24.303Z,8.27
2022-11-28T21:53:51.536Z,8.35
2022-11-28T21:56:18.686Z,8.42
2022-11-28T21:58:45.048Z,8.35
2022-11-28T22:01:14.659Z,8.39
2022-11-28T22:03:43.523Z,8.38
2022-11-28T22:06:17.159Z,8.38
2022-11-28T22:08:44.057Z,8.37
2022-11-28T22:11:13.430Z,8.35
2022-11-28T22:13:42.181Z,8.38
2022-11-28T22:16:11.002Z,8.36
2022-11-28T22:18:37.867Z,8.28
2022-11-28T22:21:22.304Z,8.28
2022-11-28T22:23:53.412Z,8.34
2022-11-28T22:26:19.805Z,8.36
2022-11-28T22:28:53.080Z,8.41
2022-11-28T22:31:20.289Z,8.41
2022-11-28T22:33:49.332Z,8.40
2022-11-28T22:36:18.745Z,8.39
2022-11-28T22:38:47.070Z,8.43
2022-11-28T22:41:16.098Z,8.40
2022-11-28T22:43:42.532Z,8.47
2022-11-28T22:46:09.737Z,8.48
2022-11-28T22:48:38.266Z,8.42
2022-11-28T22:51:09.115Z,8.49
2022-11-28T22:53:35.867Z,8.40
2022-11-28T22:56:14.774Z,8.42
2022-11-28T22:58:43.690Z,8.39
2022-11-28T23:01:13.380Z,8.36
2022-11-28T23:03:40.524Z,8.37
2022-11-28T23:06:13.001Z,8.36
2022-11-28T23:08:39.840Z,8.40
2022-11-28T23:11:08.283Z,8.40
2022-11-28T23:13:35.975Z,8.39
2022-11-28T23:16:20.523Z,8.44
2022-11-28T23:18:50.113Z,8.46
2022-11-28T23:21:17.772Z,8.43
2022-11-28T23:23:45.946Z,8.44
2022-11-28T23:26:27.355Z,8.43
2022-11-28T23:28:54.548Z,8.39
2022-11-28T23:31:24.806Z,8.43
2022-11-28T23:33:52.246Z,8.43
2022-11-28T23:36:27.358Z,8.46
2022-11-28T23:38:56.148Z,8.44
2022-11-28T23:41:22.945Z,8.49
2022-11-28T23:43:49.311Z,8.45
2022-11-28T23:46:17.778Z,8.48
2022-11-28T23:48:44.672Z,8.49
2022-11-28T23:51:12.864Z,8.50
2022-11-28T23:53:40.691Z,8.51
2022-11-28T23:56:13.320Z,8.51
2022-11-28T23:58:40.380Z,8.51
